ENFL/FRO METAR and TAF weather

Enter ICAO airport designator
Station Type Date Time Source
ENFL METAR 2022/06/30 01:50 UTC NOAA

ENFL 300150Z AUTO 10005KT 9999NDV NCD 14/11 Q1017


Station Type Date Time Source
ENFL Decoded METAR 2022/06/30 01:50 UTC NOAA

Floro, Norway (ENFL) 61-35N 005-02E 9M
Jun 29, 2022 - 09:50 PM EDT / 2022.06.30 0150 UTC
Wind: from the E (100 degrees) at 6 MPH (5 KT):0
Temperature: 57 F (14 C)
Dew Point: 51 F (11 C)
Relative Humidity: 82%
Pressure (altimeter): 30.03 in. Hg (1017 hPa)
ob: ENFL 300150Z AUTO 10005KT 9999NDV NCD 14/11 Q1017
cycle: 2

Station Type Date Time Source
ENFL TAF 2010/02/05 07:50 UTC NOAA

METAR ENFL 050750Z 16019KT 140V200 9999 FEW015 SCT030 BKN055 03/M03 Q1011

Example: see airport list